Time;durP1;ratioP1;P1;durP2;ratioP2;P2;SDS_P1;SDS_P2;PMS_P1;PMS_P2;Temp;Humidity;BMP_temperature;BMP_pressure;BME280_temperature;BME280_humidity;BME280_pressure;Samples;Min_cycle;Max_cycle;Signal;HPM_P1;HPM_P2
2021/06/14 00:00:38;;;;;;;2.10;1.90;;;;;;;10.96;85.22;94315.89;1706283;84;20934;-57
2021/06/14 00:03:05;;;;;;;2.77;1.75;;;;;;;10.96;85.35;94312.52;1710299;83;20993;-55
2021/06/14 00:05:43;;;;;;;1.82;1.70;;;;;;;10.97;85.19;94301.66;1687763;83;21014;-55
2021/06/14 00:08:18;;;;;;;2.10;1.70;;;;;;;10.96;84.99;94303.51;1709441;83;21454;-56
2021/06/14 00:10:48;;;;;;;1.90;1.80;;;;;;;10.95;84.86;94297.86;1709313;83;21033;-57
2021/06/14 00:13:15;;;;;;;1.85;1.75;;;;;;;10.96;84.75;94300.13;1709904;83;20982;-56
2021/06/14 00:15:44;;;;;;;1.90;1.77;;;;;;;10.95;84.91;94298.60;1706800;83;21005;-57
2021/06/14 00:18:11;;;;;;;1.80;1.70;;;;;;;10.96;84.88;94300.13;1709389;82;20950;-57
2021/06/14 00:20:39;;;;;;;1.77;1.67;;;;;;;10.91;84.90;94290.34;1684819;83;20979;-58
2021/06/14 00:23:08;;;;;;;1.92;1.82;;;;;;;10.88;85.19;94290.66;1708901;83;21088;-56
2021/06/14 00:25:35;;;;;;;2.08;1.98;;;;;;;10.84;85.23;94286.53;1666555;83;21017;-55
2021/06/14 00:28:02;;;;;;;1.70;1.60;;;;;;;10.82;85.65;94291.73;1709702;83;21085;-57
2021/06/14 00:30:39;;;;;;;1.80;1.70;;;;;;;10.84;85.94;94296.16;1707800;83;21199;-56
2021/06/14 00:33:06;;;;;;;1.90;1.80;;;;;;;10.82;86.08;94293.86;1707429;83;21002;-57
2021/06/14 00:35:33;;;;;;;2.92;1.95;;;;;;;10.85;86.46;94297.09;1712308;82;21545;-57
2021/06/14 00:38:00;;;;;;;1.85;1.75;;;;;;;10.89;86.32;94300.45;1711617;83;21395;-57
2021/06/14 00:40:27;;;;;;;2.40;2.00;;;;;;;10.93;86.33;94296.92;1709733;83;21499;-56
2021/06/14 00:42:54;;;;;;;2.02;1.90;;;;;;;10.95;85.92;94297.23;1710404;83;21014;-56
2021/06/14 00:45:24;;;;;;;1.80;1.70;;;;;;;10.92;85.77;94289.11;1706018;83;21105;-56
2021/06/14 00:47:51;;;;;;;1.92;1.82;;;;;;;10.87;85.92;94290.52;1709480;83;21145;-57
2021/06/14 00:50:39;;;;;;;1.80;1.70;;;;;;;10.84;86.03;94296.16;1707983;83;20982;-57
2021/06/14 00:53:09;;;;;;;1.80;1.70;;;;;;;10.84;86.14;94298.92;1707303;83;21053;-57
2021/06/14 00:55:36;;;;;;;1.90;1.80;;;;;;;10.81;85.97;94295.09;1709647;83;21013;-57
2021/06/14 00:58:03;;;;;;;1.80;1.70;;;;;;;10.73;85.81;94296.62;1707172;83;21124;-57
2021/06/14 01:00:30;;;;;;;2.00;1.90;;;;;;;10.65;86.00;94286.98;1706347;83;21022;-56
2021/06/14 01:02:58;;;;;;;3.47;1.82;;;;;;;10.62;86.51;94289.28;1709389;83;20951;-57
2021/06/14 01:05:27;;;;;;;2.30;2.10;;;;;;;10.58;86.78;94290.83;1710077;83;20978;-57
2021/06/14 01:07:53;;;;;;;2.22;2.10;;;;;;;10.57;87.17;94292.02;1714461;82;21142;-57
2021/06/14 01:10:21;;;;;;;1.90;1.80;;;;;;;10.62;87.47;94290.66;1709309;83;20997;-56
2021/06/14 01:13:08;;;;;;;2.00;1.90;;;;;;;10.68;87.35;94287.47;1685639;83;21795;-57
2021/06/14 01:15:45;;;;;;;2.25;2.05;;;;;;;10.71;87.33;94281.80;1712195;83;21006;-56
2021/06/14 01:18:13;;;;;;;2.17;2.08;;;;;;;10.71;87.24;94288.67;1709251;83;21009;-57
2021/06/14 01:21:06;;;;;;;2.17;2.08;;;;;;;10.71;87.44;94280.42;1708654;83;20946;-57
2021/06/14 01:23:53;;;;;;;;;;;;;;;10.78;87.78;94282.25;1717267;83;21557;-57
2021/06/14 01:26:21;;;;;;;4.10;2.10;;;;;;;10.86;87.60;94288.21;1710189;83;21905;-57
2021/06/14 01:28:52;;;;;;;2.00;1.90;;;;;;;10.92;87.56;94283.02;1708582;83;20970;-56
2021/06/14 01:31:22;;;;;;;1.90;1.80;;;;;;;10.97;87.31;94290.64;1708787;82;20985;-57
2021/06/14 01:33:49;;;;;;;2.00;1.90;;;;;;;11.01;87.02;94284.99;1708416;83;21025;-57
2021/06/14 01:36:24;;;;;;;2.12;2.02;;;;;;;11.05;86.64;94287.75;1663672;83;21048;-57
2021/06/14 01:38:52;;;;;;;2.25;2.00;;;;;;;11.05;86.41;94283.62;1711242;83;21141;-56
2021/06/14 01:41:19;;;;;;;2.45;2.00;;;;;;;11.09;86.45;94286.97;1690807;83;20953;-57
2021/06/14 01:43:47;;;;;;;2.10;2.00;;;;;;;11.09;86.54;94287.57;1691012;83;20990;-57
2021/06/14 01:46:23;;;;;;;1.82;1.72;;;;;;;11.10;86.51;94288.50;1708964;83;21077;-57
2021/06/14 01:48:52;;;;;;;1.80;1.70;;;;;;;11.06;86.40;94286.52;1706219;83;21516;-57
2021/06/14 01:51:22;;;;;;;2.10;2.00;;;;;;;11.06;86.54;94285.14;1712834;83;21135;-58
2021/06/14 01:54:07;;;;;;;1.80;1.70;;;;;;;10.99;86.54;94284.06;1706278;83;20970;-57
2021/06/14 01:56:52;;;;;;;2.00;1.90;;;;;;;10.94;86.70;94287.44;1690519;83;21093;-56
2021/06/14 01:59:29;;;;;;;3.17;2.10;;;;;;;10.94;87.21;94287.44;1708932;83;20973;-56
2021/06/14 02:01:57;;;;;;;2.20;2.10;;;;;;;10.97;86.84;94280.27;1711980;82;20950;-56
2021/06/14 02:04:24;;;;;;;1.90;1.80;;;;;;;10.96;86.84;94278.11;1687373;84;21759;-57
2021/06/14 02:06:53;;;;;;;2.10;2.00;;;;;;;10.93;86.78;94283.16;1706949;83;21080;-57
2021/06/14 02:09:23;;;;;;;2.00;1.87;;;;;;;10.89;86.95;94280.41;1686295;83;21021;-56
2021/06/14 02:11:56;;;;;;;2.00;1.87;;;;;;;10.85;87.19;94276.45;1706586;82;21426;-57
2021/06/14 02:14:26;;;;;;;1.80;1.70;;;;;;;10.88;87.54;94281.63;1719295;82;20993;-57
2021/06/14 02:16:53;;;;;;;2.02;1.92;;;;;;;10.93;87.85;94285.14;1710214;83;21861;-57
2021/06/14 02:19:21;;;;;;;2.25;2.08;;;;;;;10.98;87.68;94288.05;1706568;83;20950;-58
2021/06/14 02:21:49;;;;;;;1.92;1.82;;;;;;;10.98;87.29;94279.78;1708861;83;21227;-57
2021/06/14 02:24:17;;;;;;;1.82;1.72;;;;;;;10.96;87.08;94282.86;1714692;83;21068;-56
2021/06/14 02:26:45;;;;;;;1.80;1.70;;;;;;;10.95;86.97;94279.97;1712820;83;20954;-57
2021/06/14 02:29:14;;;;;;;1.60;1.60;;;;;;;10.94;87.09;94281.94;1711979;83;21215;-57
2021/06/14 02:31:42;;;;;;;1.90;1.80;;;;;;;10.92;86.96;94277.52;1709884;83;21555;-57
2021/06/14 02:34:10;;;;;;;1.80;1.70;;;;;;;10.90;87.19;94284.09;1706724;83;21006;-57
2021/06/14 02:36:37;;;;;;;2.10;2.00;;;;;;;10.91;87.34;94281.48;1707719;83;20996;-57
2021/06/14 02:39:12;;;;;;;2.10;2.00;;;;;;;10.90;87.22;94282.71;1708781;83;21037;-57
2021/06/14 02:41:40;;;;;;;2.05;1.95;;;;;;;10.87;87.54;94285.61;1706422;83;21070;-57
2021/06/14 02:44:07;;;;;;;2.92;2.65;;;;;;;10.91;88.08;94282.86;1709006;82;21066;-58
2021/06/14 02:46:40;;;;;;;3.08;2.40;;;;;;;10.99;87.99;94285.44;1687307;83;21053;-58
2021/06/14 02:49:07;;;;;;;2.67;2.47;;;;;;;10.97;87.70;94283.77;1708516;83;20998;-58
2021/06/14 02:51:36;;;;;;;2.87;2.67;;;;;;;10.96;87.64;94285.62;1708639;82;21058;-56
2021/06/14 02:54:07;;;;;;;2.98;2.67;;;;;;;10.92;87.79;94286.36;1707647;83;21121;-57
2021/06/14 02:56:37;;;;;;;2.62;2.50;;;;;;;10.96;88.17;94285.62;1708344;83;21120;-56
2021/06/14 02:59:12;;;;;;;3.67;2.65;;;;;;;11.02;88.29;94284.52;1712123;83;21037;-57
2021/06/14 03:01:40;;;;;;;2.20;2.10;;;;;;;11.08;88.20;94280.54;1714915;82;21040;-57
2021/06/14 03:04:08;;;;;;;2.25;2.05;;;;;;;11.14;87.88;94286.97;1710935;83;21017;-55
2021/06/14 03:06:35;;;;;;;2.20;1.95;;;;;;;11.14;87.62;94284.97;1709174;83;21898;-56
2021/06/14 03:09:06;;;;;;;2.20;2.00;;;;;;;11.12;87.41;94292.92;1711226;82;21057;-56
2021/06/14 03:11:34;;;;;;;2.30;2.10;;;;;;;11.14;87.54;94286.34;1711722;83;21218;-57
2021/06/14 03:14:03;;;;;;;3.37;2.62;;;;;;;11.13;87.23;94295.83;1704526;82;21062;-55
2021/06/14 03:16:31;;;;;;;4.10;2.50;;;;;;;11.13;87.21;94285.45;1711961;83;21084;-57
2021/06/14 03:18:59;;;;;;;2.20;2.10;;;;;;;11.13;87.16;94295.83;1709517;82;21182;-57
2021/06/14 03:21:29;;;;;;;5.15;2.83;;;;;;;11.13;87.36;94288.20;1710768;83;21045;-57
2021/06/14 03:23:56;;;;;;;2.50;2.15;;;;;;;11.10;87.36;94294.00;1704520;83;21528;-56
2021/06/14 03:26:38;;;;;;;2.40;2.20;;;;;;;11.11;87.53;94285.89;1722771;83;21064;-56
2021/06/14 03:29:06;;;;;;;3.12;2.40;;;;;;;11.13;87.48;94293.08;1714063;83;21001;-57
2021/06/14 03:31:33;;;;;;;4.92;2.60;;;;;;;11.15;87.30;94287.87;1706743;83;21142;-57
2021/06/14 03:34:00;;;;;;;2.83;2.52;;;;;;;11.15;87.33;94289.88;1708328;83;20954;-56
2021/06/14 03:36:30;;;;;;;2.30;2.10;;;;;;;11.16;87.21;94283.89;1684776;83;20973;-57
2021/06/14 03:38:58;;;;;;;2.10;2.00;;;;;;;11.12;87.03;94281.91;1711310;83;21041;-57
2021/06/14 03:41:25;;;;;;;2.98;1.70;;;;;;;11.08;87.35;94284.07;1713287;82;21009;-58
2021/06/14 03:43:52;;;;;;;3.02;2.45;;;;;;;11.10;87.63;94282.99;1707716;83;22031;-56
2021/06/14 03:46:20;;;;;;;2.75;1.70;;;;;;;11.13;87.52;94290.33;1665558;84;20989;-57
2021/06/14 03:48:48;;;;;;;2.20;2.00;;;;;;;11.16;87.44;94288.02;1708749;84;20954;-57
2021/06/14 03:51:14;;;;;;;2.37;2.00;;;;;;;11.14;87.47;94293.86;1706649;82;21014;-57
2021/06/14 03:53:56;;;;;;;2.40;2.30;;;;;;;11.18;87.71;94287.57;1712531;83;21002;-57
2021/06/14 03:56:10;;;;;;;6.20;4.22;;;;;;;11.21;87.93;94287.39;1703653;82;21178;-58
2021/06/14 03:58:37;;;;;;;2.45;2.17;;;;;;;11.30;88.19;94289.36;1713565;83;20974;-58
2021/06/14 04:01:04;;;;;;;2.35;2.10;;;;;;;11.31;87.79;94293.67;1715644;83;21017;-56
2021/06/14 04:03:31;;;;;;;2.12;2.02;;;;;;;11.30;87.56;94301.75;1708750;83;21073;-56
2021/06/14 04:06:02;;;;;;;2.15;1.92;;;;;;;11.32;87.40;94295.95;1710192;83;20958;-57
2021/06/14 04:08:30;;;;;;;6.33;2.85;;;;;;;11.34;87.33;94299.00;1708395;83;21097;-57
2021/06/14 04:10:57;;;;;;;2.20;2.00;;;;;;;11.37;87.54;94299.45;1713006;83;20950;-57
2021/06/14 04:13:25;;;;;;;2.55;2.30;;;;;;;11.39;87.62;94296.98;1710342;83;21034;-56
2021/06/14 04:15:52;;;;;;;2.42;2.10;;;;;;;11.40;87.78;94295.79;1709553;83;20964;-56
2021/06/14 04:18:18;;;;;;;3.08;1.82;;;;;;;11.42;87.53;94293.34;1711865;82;21489;-57
2021/06/14 04:20:46;;;;;;;2.05;1.95;;;;;;;11.41;87.36;94304.80;1728298;81;21112;-58
2021/06/14 04:23:13;;;;;;;2.15;2.02;;;;;;;11.40;87.46;94311.54;1714386;81;21046;-58
2021/06/14 04:25:40;;;;;;;2.50;2.33;;;;;;;11.39;87.49;94307.26;1720169;82;21019;-56
2021/06/14 04:28:07;;;;;;;4.47;2.65;;;;;;;11.34;87.64;94311.39;1719730;82;21015;-57
2021/06/14 04:30:35;;;;;;;1.90;1.80;;;;;;;11.32;87.62;94308.34;1692173;83;21026;-57
2021/06/14 04:33:03;;;;;;;2.00;1.90;;;;;;;11.33;87.62;94312.62;1718764;81;21147;-58
2021/06/14 04:35:30;;;;;;;2.12;2.02;;;;;;;11.30;87.51;94306.66;1722980;81;20951;-57
2021/06/14 04:37:57;;;;;;;2.02;1.92;;;;;;;11.33;86.62;94304.36;1719239;82;20975;-59
2021/06/14 04:40:23;;;;;;;2.60;2.40;;;;;;;11.40;85.40;94306.81;1719392;82;21182;-57
2021/06/14 04:42:50;;;;;;;2.08;1.98;;;;;;;11.52;85.33;94307.84;1726274;82;21540;-58
2021/06/14 04:45:17;;;;;;;2.47;2.25;;;;;;;11.58;85.41;94304.03;1714379;82;21204;-57
2021/06/14 04:47:45;;;;;;;4.58;2.67;;;;;;;11.66;85.68;94318.22;1714321;82;21025;-57
2021/06/14 04:50:12;;;;;;;2.70;2.50;;;;;;;11.73;85.44;94318.66;1718749;82;21038;-57
2021/06/14 04:52:40;;;;;;;3.40;3.20;;;;;;;11.82;85.67;94311.75;1721471;81;21120;-57
2021/06/14 04:55:08;;;;;;;3.17;2.70;;;;;;;11.87;85.73;94313.87;1712270;82;20964;-57
2021/06/14 04:57:35;;;;;;;2.90;2.70;;;;;;;11.91;85.65;94307.56;1733745;81;21175;-57
2021/06/14 05:00:05;;;;;;;3.42;2.52;;;;;;;11.97;85.71;94308.48;1733132;82;21584;-58
2021/06/14 05:02:32;;;;;;;3.33;3.02;;;;;;;12.05;85.52;94317.92;1716865;82;21538;-58
2021/06/14 05:04:59;;;;;;;3.98;2.67;;;;;;;12.04;85.52;94327.43;1715543;81;20973;-58
2021/06/14 05:07:26;;;;;;;4.08;3.40;;;;;;;12.07;85.71;94315.47;1710658;81;20997;-56
2021/06/14 05:09:53;;;;;;;3.67;3.37;;;;;;;12.14;85.54;94313.77;1722347;82;21850;-56
2021/06/14 05:12:20;;;;;;;3.10;2.90;;;;;;;12.21;85.04;94320.30;1706540;82;21058;-57
2021/06/14 05:14:47;;;;;;;3.75;3.42;;;;;;;12.21;84.79;94322.28;1720645;82;21513;-56
2021/06/14 05:17:17;;;;;;;3.83;3.52;;;;;;;12.15;84.90;94327.70;1717213;82;21014;-58
2021/06/14 05:19:45;;;;;;;3.52;3.22;;;;;;;12.12;85.15;94319.59;1723019;81;21025;-57
2021/06/14 05:22:14;;;;;;;3.77;3.47;;;;;;;12.12;85.27;94317.58;1703080;83;21167;-57
2021/06/14 05:24:41;;;;;;;3.75;3.45;;;;;;;12.09;85.01;94318.52;1689904;82;21011;-57
2021/06/14 05:27:08;;;;;;;7.40;4.78;;;;;;;12.01;85.27;94313.20;1710639;82;21019;-56
2021/06/14 05:29:35;;;;;;;4.08;3.77;;;;;;;11.98;85.67;94327.14;1707944;82;21017;-57
2021/06/14 05:32:02;;;;;;;4.15;3.67;;;;;;;12.02;86.37;94328.52;1701932;82;20970;-57
2021/06/14 05:34:28;;;;;;;13.25;8.18;;;;;;;12.06;86.43;94326.97;1730700;82;21795;-57
2021/06/14 05:36:55;;;;;;;3.90;3.60;;;;;;;12.05;86.52;94330.96;1738799;82;20982;-57
2021/06/14 05:39:22;;;;;;;3.33;3.02;;;;;;;12.08;86.43;94341.80;1727296;82;21208;-57
2021/06/14 05:41:49;;;;;;;3.20;2.95;;;;;;;12.08;86.04;94328.65;1709569;81;21163;-57
2021/06/14 05:44:16;;;;;;;3.20;2.87;;;;;;;12.00;85.86;94344.76;1713710;81;21517;-57
2021/06/14 05:46:44;;;;;;;5.50;4.25;;;;;;;11.92;85.92;94339.41;1710884;80;21128;-57
2021/06/14 05:49:13;;;;;;;3.27;3.02;;;;;;;11.87;86.57;94346.95;1718640;82;21166;-57
2021/06/14 05:51:39;;;;;;;3.40;3.10;;;;;;;11.89;86.97;94339.60;1709605;82;20963;-59
2021/06/14 05:54:08;;;;;;;2.98;2.77;;;;;;;11.92;86.69;94351.06;1719682;82;21478;-58
2021/06/14 05:56:35;;;;;;;3.55;3.25;;;;;;;11.91;86.12;94329.63;1705585;82;21108;-58
2021/06/14 05:59:02;;;;;;;3.40;3.20;;;;;;;11.91;85.14;94343.40;1688902;83;21138;-59
2021/06/14 06:01:30;;;;;;;4.08;3.77;;;;;;;11.87;84.94;94349.70;1717769;80;21549;-57
2021/06/14 06:03:57;;;;;;;3.60;3.30;;;;;;;11.88;85.43;94360.13;1713010;81;21095;-58
2021/06/14 06:06:26;;;;;;;7.72;4.60;;;;;;;11.91;85.54;94355.05;1714922;81;21063;-60
2021/06/14 06:08:53;;;;;;;6.15;5.45;;;;;;;11.93;84.91;94353.34;1696276;82;21023;-56
2021/06/14 06:11:20;;;;;;;5.78;5.28;;;;;;;12.00;85.04;94359.92;1705099;81;22112;-60
2021/06/14 06:13:47;;;;;;;12.78;11.48;;;;;;;12.04;85.43;94359.14;1712010;81;21114;-58
2021/06/14 06:16:15;;;;;;;7.67;5.90;;;;;;;12.10;85.89;94366.91;1675552;83;21044;-63
2021/06/14 06:18:42;;;;;;;5.28;4.22;;;;;;;12.16;85.93;94362.31;1684913;82;20896;-59
2021/06/14 06:21:09;;;;;;;3.75;3.45;;;;;;;12.25;85.62;94365.02;1692840;81;38126;-60
2021/06/14 06:23:36;;;;;;;6.08;3.60;;;;;;;12.33;84.93;94365.45;1707874;81;21153;-59
2021/06/14 06:26:03;;;;;;;4.12;3.72;;;;;;;12.33;84.17;94371.73;1718605;81;21045;-56
2021/06/14 06:28:30;;;;;;;2.65;2.45;;;;;;;12.37;84.46;94375.69;1713534;81;20992;-59
2021/06/14 06:30:57;;;;;;;2.30;2.20;;;;;;;12.39;84.30;94367.70;1716228;81;21501;-58
2021/06/14 06:33:23;;;;;;;3.42;3.20;;;;;;;12.44;83.75;94378.13;1719996;81;21113;-60
2021/06/14 06:35:50;;;;;;;6.00;5.40;;;;;;;12.53;83.22;94380.97;1721726;80;21225;-62
2021/06/14 06:38:17;;;;;;;3.52;3.22;;;;;;;12.60;83.64;94382.63;1713219;81;21055;-61
2021/06/14 06:40:44;;;;;;;2.92;2.72;;;;;;;12.69;82.66;94385.34;1704180;81;21057;-64
2021/06/14 06:43:11;;;;;;;2.95;2.75;;;;;;;12.73;81.69;94382.53;1713104;81;21087;-63
2021/06/14 06:45:38;;;;;;;4.22;3.83;;;;;;;12.80;82.43;94404.89;1707385;81;21490;-59
2021/06/14 06:48:06;;;;;;;4.47;4.00;;;;;;;12.81;82.66;94389.25;1712454;82;21149;-60
2021/06/14 06:50:33;;;;;;;3.27;2.80;;;;;;;12.78;81.41;94393.55;1720062;81;21639;-60
2021/06/14 06:53:00;;;;;;;3.60;3.30;;;;;;;12.75;81.32;94398.64;1720041;80;21096;-57
2021/06/14 06:55:27;;;;;;;3.52;3.25;;;;;;;12.74;81.15;94398.49;1702578;82;21559;-57
2021/06/14 06:57:54;;;;;;;5.45;4.60;;;;;;;12.75;81.48;94412.44;1713835;82;21101;-59
2021/06/14 07:00:22;;;;;;;6.67;4.55;;;;;;;12.70;81.01;94415.22;1721949;81;21638;-58
2021/06/14 07:02:50;;;;;;;5.37;4.87;;;;;;;12.59;80.93;94408.69;1718817;81;21169;-60
2021/06/14 07:05:16;;;;;;;5.00;4.58;;;;;;;12.49;81.39;94411.96;1715233;81;21107;-59
2021/06/14 07:07:43;;;;;;;7.33;6.00;;;;;;;12.47;81.86;94413.80;1714286;80;21185;-60
2021/06/14 07:10:11;;;;;;;11.75;8.95;;;;;;;12.52;81.95;94414.56;1704888;82;21117;-59
2021/06/14 07:12:39;;;;;;;8.38;7.05;;;;;;;12.58;82.37;94415.44;1710174;81;21363;-57
2021/06/14 07:15:10;;;;;;;9.15;7.37;;;;;;;12.64;82.00;94416.32;1702469;81;21153;-58
2021/06/14 07:17:39;;;;;;;7.17;6.25;;;;;;;12.58;81.15;94423.72;1712372;81;21041;-60
2021/06/14 07:20:07;;;;;;;6.60;5.95;;;;;;;12.49;81.91;94427.14;1716828;81;21263;-59
2021/06/14 07:22:34;;;;;;;35.25;12.10;;;;;;;12.48;82.21;94433.26;1718651;81;21056;-59
2021/06/14 07:25:02;;;;;;;13.78;7.70;;;;;;;12.48;81.84;94439.41;1702311;82;21298;-58
2021/06/14 07:27:31;;;;;;;8.03;7.03;;;;;;;12.41;81.48;94433.61;1722493;81;21142;-60
2021/06/14 07:30:00;;;;;;;13.55;8.48;;;;;;;12.37;81.05;94432.23;1719994;80;21101;-59
2021/06/14 07:32:27;;;;;;;7.67;6.80;;;;;;;12.38;81.43;94436.52;1711505;81;22229;-58
2021/06/14 07:34:54;;;;;;;26.68;11.15;;;;;;;12.45;81.25;94430.69;1704692;82;21609;-60
2021/06/14 07:37:21;;;;;;;13.62;9.10;;;;;;;12.51;81.10;94442.01;1722996;81;21559;-54
2021/06/14 07:39:48;;;;;;;9.33;6.80;;;;;;;12.56;81.22;94434.46;1722045;81;21113;-61
2021/06/14 07:42:16;;;;;;;12.10;8.33;;;;;;;12.63;81.27;94443.77;1703856;82;21070;-60
2021/06/14 07:44:45;;;;;;;10.08;7.90;;;;;;;12.71;80.94;94446.36;1707621;82;22378;-62
2021/06/14 07:47:12;;;;;;;8.10;6.67;;;;;;;12.80;80.95;94454.58;1720071;81;21525;-58
2021/06/14 07:49:41;;;;;;;7.17;6.47;;;;;;;12.94;80.89;94449.78;1714152;82;21152;-58
2021/06/14 07:52:08;;;;;;;10.32;9.23;;;;;;;13.05;80.34;94443.88;1709583;82;21044;-56
2021/06/14 07:54:36;;;;;;;6.65;5.95;;;;;;;13.15;80.12;94443.98;1709850;81;21109;-57
2021/06/14 07:57:03;;;;;;;6.25;5.65;;;;;;;13.23;79.33;94440.99;1715459;81;21070;-59
2021/06/14 07:59:30;;;;;;;6.40;5.80;;;;;;;13.31;79.66;94456.60;1682169;82;21091;-59
2021/06/14 08:01:57;;;;;;;7.62;6.25;;;;;;;13.37;78.71;94449.95;1644930;85;21141;-58
2021/06/14 08:04:23;;;;;;;6.15;5.55;;;;;;;13.34;76.97;94452.28;1655292;85;21126;-60
2021/06/14 08:06:50;;;;;;;7.33;5.85;;;;;;;13.40;77.63;94445.47;1720015;81;21090;-60
2021/06/14 08:09:21;;;;;;;5.15;4.65;;;;;;;13.56;78.49;94454.11;1715963;81;21014;-58
2021/06/14 08:11:47;;;;;;;6.35;5.30;;;;;;;13.79;76.17;94455.30;1715274;82;20978;-57
2021/06/14 08:14:13;;;;;;;7.33;5.70;;;;;;;13.93;76.22;94457.30;1714371;81;21541;-58
2021/06/14 08:16:44;;;;;;;6.40;4.08;;;;;;;14.22;76.78;94455.34;1687661;82;21694;-61
2021/06/14 08:19:25;;;;;;;4.62;4.22;;;;;;;14.53;72.72;94456.39;1709477;81;21066;-60
2021/06/14 08:27:02;;;;;;;3.40;3.10;;;;;;;14.87;72.63;94477.05;1684361;82;21979;-58
2021/06/14 08:29:30;;;;;;;5.90;5.40;;;;;;;14.91;70.94;94471.46;1719601;81;21062;-58
2021/06/14 08:31:56;;;;;;;4.15;3.62;;;;;;;14.95;71.79;94472.02;1700237;80;21893;-59
2021/06/14 08:34:23;;;;;;;6.08;5.50;;;;;;;15.06;71.12;94472.80;1703908;81;20999;-59
2021/06/14 08:36:51;;;;;;;5.62;4.22;;;;;;;15.16;71.92;94468.67;1674407;82;21051;-59
2021/06/14 08:39:18;;;;;;;4.40;3.60;;;;;;;15.31;72.11;94470.16;1726199;81;22006;-59
2021/06/14 08:41:46;;;;;;;6.37;4.42;;;;;;;15.44;70.06;94477.53;1727946;80;21000;-59
2021/06/14 08:44:12;;;;;;;7.85;6.42;;;;;;;15.44;68.37;94483.08;1725723;80;21044;-60
2021/06/14 08:46:39;;;;;;;4.50;4.10;;;;;;;15.39;68.74;94483.74;1702958;82;21026;-59
2021/06/14 08:49:06;;;;;;;10.55;6.55;;;;;;;15.35;67.79;94485.97;1699542;81;21047;-59
2021/06/14 08:51:33;;;;;;;6.80;5.67;;;;;;;15.27;67.27;94495.91;1704168;81;21157;-62
2021/06/14 08:54:02;;;;;;;8.30;7.45;;;;;;;15.16;67.99;94499.91;1730343;81;21030;-63
2021/06/14 08:56:29;;;;;;;9.10;7.30;;;;;;;15.11;68.88;94503.36;1721965;81;20971;-61
2021/06/14 08:58:57;;;;;;;8.33;6.60;;;;;;;15.20;69.46;94503.23;1694579;82;21053;-58
2021/06/14 09:01:24;;;;;;;8.35;6.72;;;;;;;15.32;68.95;94503.56;1720384;80;21378;-60
2021/06/14 09:03:51;;;;;;;8.25;7.00;;;;;;;15.46;68.78;94498.59;1706661;82;21654;-59
2021/06/14 09:06:18;;;;;;;9.28;7.60;;;;;;;15.60;69.66;94505.32;1717525;80;21547;-59
2021/06/14 09:08:57;;;;;;;9.53;8.33;;;;;;;15.67;69.02;94504.28;1711450;80;21448;-61
2021/06/14 09:11:25;;;;;;;8.00;7.17;;;;;;;15.74;68.52;94513.56;1707762;81;21179;-58
2021/06/14 09:13:52;;;;;;;9.35;7.03;;;;;;;15.71;66.20;94517.95;1724176;82;21068;-59
2021/06/14 09:16:20;;;;;;;8.90;7.75;;;;;;;15.59;67.03;94511.51;1725630;81;21286;-59
2021/06/14 09:18:47;;;;;;;8.55;7.60;;;;;;;15.56;67.04;94511.06;1708032;80;21056;-60
2021/06/14 09:21:15;;;;;;;7.62;6.85;;;;;;;15.51;66.76;94517.95;1715132;81;21023;-58
2021/06/14 09:23:47;;;;;;;7.47;6.72;;;;;;;15.45;67.14;94507.38;1724838;81;21014;-59
2021/06/14 09:26:31;;;;;;;9.03;8.13;;;;;;;15.33;67.74;94517.56;1713021;81;21783;-60
2021/06/14 09:29:03;;;;;;;8.95;8.05;;;;;;;15.21;68.53;94525.54;1675927;82;21767;-60
2021/06/14 09:31:46;;;;;;;8.38;6.60;;;;;;;14.99;69.26;94518.28;1718804;82;21399;-60
2021/06/14 09:34:14;;;;;;;7.30;6.08;;;;;;;14.82;70.40;94517.90;1689407;82;21062;-59
2021/06/14 09:36:42;;;;;;;7.95;6.33;;;;;;;14.69;70.93;94522.36;1710420;81;21049;-58
2021/06/14 09:39:15;;;;;;;6.87;6.17;;;;;;;14.61;71.78;94536.42;1701932;80;21219;-61
2021/06/14 09:41:44;;;;;;;;;;;;;;;14.53;72.12;94531.75;1716077;82;22268;-60
2021/06/14 09:44:11;;;;;;;6.50;5.90;;;;;;;14.48;72.60;94532.42;1719004;80;21533;-60
2021/06/14 09:46:39;;;;;;;7.08;6.10;;;;;;;14.43;72.43;94530.94;1707336;80;21561;-60
2021/06/14 09:49:06;;;;;;;12.73;9.25;;;;;;;14.48;73.10;94533.81;1707782;81;21085;-58
2021/06/14 09:51:35;;;;;;;5.70;5.20;;;;;;;14.47;72.06;94530.90;1689727;81;21691;-59
2021/06/14 09:54:02;;;;;;;6.05;4.72;;;;;;;14.43;71.25;94533.84;1682708;83;21553;-60
2021/06/14 09:56:36;;;;;;;6.22;4.60;;;;;;;14.41;71.54;94531.44;1706774;81;21165;-63
2021/06/14 09:59:01;;;;;;;5.90;5.30;;;;;;;14.43;71.63;94528.95;1715222;81;21513;-60
2021/06/14 10:01:34;;;;;;;9.33;7.35;;;;;;;14.46;71.62;94534.91;1697499;82;21049;-59
2021/06/14 10:04:11;;;;;;;5.70;5.08;;;;;;;14.48;72.26;94540.09;1701833;82;21061;-61
2021/06/14 10:06:43;;;;;;;6.03;5.30;;;;;;;14.41;70.43;94533.42;1711368;81;21582;-60
2021/06/14 10:09:17;;;;;;;6.33;5.72;;;;;;;14.39;71.60;94538.67;1726827;80;20990;-59
2021/06/14 10:11:46;;;;;;;7.95;6.65;;;;;;;14.39;71.79;94544.20;1662383;85;22134;-60
2021/06/14 10:14:15;;;;;;;7.42;6.05;;;;;;;14.32;71.71;94542.58;1669467;84;21626;-61
2021/06/14 10:16:43;;;;;;;9.18;7.22;;;;;;;14.25;71.82;94547.11;1662022;84;21245;-59
2021/06/14 10:19:12;;;;;;;6.58;5.92;;;;;;;14.22;71.96;94542.50;1701404;82;21084;-61
2021/06/14 10:21:44;;;;;;;8.23;6.03;;;;;;;14.23;72.66;94551.58;1675894;84;21091;-59
2021/06/14 10:24:16;;;;;;;7.37;6.10;;;;;;;14.34;73.46;94547.65;1699020;81;21145;-61
2021/06/14 10:26:50;;;;;;;6.62;5.83;;;;;;;14.44;73.48;94545.06;1682989;83;21041;-61
2021/06/14 10:29:18;;;;;;;6.87;6.17;;;;;;;14.44;72.21;94534.63;1677941;84;21729;-60
2021/06/14 10:31:47;;;;;;;7.70;6.12;;;;;;;14.49;72.98;94540.23;1655355;84;22036;-60
2021/06/14 10:34:15;;;;;;;7.83;6.97;;;;;;;14.48;73.13;94541.48;1693335;83;21559;-62
2021/06/14 10:36:46;;;;;;;8.43;5.65;;;;;;;14.43;72.58;94551.84;1710366;81;21098;-62
2021/06/14 10:39:13;;;;;;;7.47;5.90;;;;;;;14.43;72.68;94543.53;1705564;83;21544;-64
2021/06/14 10:41:42;;;;;;;8.53;6.10;;;;;;;14.47;72.54;94540.59;1705305;82;20955;-59
2021/06/14 10:44:09;;;;;;;8.00;5.78;;;;;;;14.36;71.21;94547.93;1743101;82;22274;-60
2021/06/14 10:46:36;;;;;;;12.00;8.18;;;;;;;14.23;71.45;94542.67;1738805;81;21104;-60
2021/06/14 10:49:02;;;;;;;9.45;6.78;;;;;;;14.15;72.30;94547.64;1723666;81;21081;-60
2021/06/14 10:51:32;;;;;;;7.90;5.97;;;;;;;14.05;72.08;94548.94;1716554;82;21044;-59
2021/06/14 10:54:07;;;;;;;5.47;4.53;;;;;;;13.95;72.82;94550.23;1712243;82;21436;-59
2021/06/14 10:56:34;;;;;;;5.30;4.80;;;;;;;13.90;73.32;94545.38;1726134;82;21137;-61
2021/06/14 10:59:04;;;;;;;6.35;5.20;;;;;;;13.90;74.29;94549.52;1691244;82;21049;-59
2021/06/14 11:01:38;;;;;;;5.20;4.70;;;;;;;13.89;74.36;94549.38;1711979;81;21058;-59
2021/06/14 11:04:06;;;;;;;6.65;4.10;;;;;;;13.86;74.64;94544.80;1700232;81;21484;-57
2021/06/14 11:06:35;;;;;;;3.95;3.55;;;;;;;13.83;74.61;94552.66;1722114;81;21090;-58
2021/06/14 11:09:13;;;;;;;4.33;3.92;;;;;;;13.81;74.19;94545.45;1702475;80;21913;-58
2021/06/14 11:11:52;;;;;;;5.72;5.15;;;;;;;13.77;74.19;94551.16;1709997;81;21018;-58
2021/06/14 11:14:39;;;;;;;5.83;5.25;;;;;;;13.75;74.74;94548.70;1712310;81;21074;-57
2021/06/14 11:17:26;;;;;;;7.83;5.22;;;;;;;13.78;75.42;94551.94;1697362;82;21121;-57
2021/06/14 11:20:05;;;;;;;7.53;6.25;;;;;;;13.82;75.64;94542.20;1710537;80;21052;-58
2021/06/14 11:22:38;;;;;;;4.65;4.25;;;;;;;13.90;75.49;94548.14;1714741;80;22265;-58
2021/06/14 11:25:30;;;;;;;6.62;4.55;;;;;;;13.98;75.46;94543.78;1705430;81;21077;-59
2021/06/14 11:28:02;;;;;;;5.53;4.62;;;;;;;13.97;75.14;94547.80;1710904;81;21502;-58
2021/06/14 11:30:31;;;;;;;7.50;5.20;;;;;;;14.00;75.45;94548.22;1724339;80;21060;-58
2021/06/14 11:32:58;;;;;;;8.28;5.87;;;;;;;14.03;75.46;94541.73;1701485;82;21048;-58
2021/06/14 11:35:27;;;;;;;4.90;4.20;;;;;;;14.07;75.43;94537.56;1716193;80;21144;-58
2021/06/14 11:37:54;;;;;;;5.33;4.17;;;;;;;14.06;75.45;94542.95;1708078;80;21073;-58
2021/06/14 11:40:35;;;;;;;6.33;4.95;;;;;;;14.09;75.53;94546.75;1707388;80;21069;-57
2021/06/14 11:43:11;;;;;;;6.75;5.45;;;;;;;14.04;75.92;94536.35;1707840;81;21007;-58
2021/06/14 11:45:41;;;;;;;5.75;4.45;;;;;;;14.01;75.91;94545.59;1707498;80;21569;-58
2021/06/14 11:48:23;;;;;;;6.80;4.40;;;;;;;13.98;75.73;94546.55;1711743;81;21152;-58